Decoded Metar for LCLK (LARNACA in CYPRUS) (IATA:LCA) | Meteo·Mobile Aviation Weather
aviador You're here:

LCLK Decoded Metar

LARNACA in CYPRUS
Report Time2019-07-16 01:30:00
UTC Time2019-07-16 01:56:58
Flight Rules vfr VFR
Wind220° at 02 kt
W.Decomp.*RWY 22: 2.0 kt HW 0.1 kt LCW
Visibility9999 m
Phenomena:N/A
Clouds:N/A
Expected CloudBase > 1,200 ft AGL from Temp-Dew spread
CeilingNone
Temp23°C (ISA +8)
Dew Point20°C (83% RH)
QNH1006 hPa
Density Alt1,483 ft
Elevation7 ft
Report Wrong Elevation
Raw Report
LCLK 160130Z 22002KT CAVOK 23/20 Q1006 NOSIG=

Extra information for LCLK:More info

Metar Taf Metar & Taf Last 4 Metars F.Rules Stats Wind Profile Meteogram Temp Stats Airport Information Weather charts Add Link Nearby VenuesMetar ALERT Operation Metar Decoded Social comments